Hovedside
METAR-TAF:

METAR-TAF

Lufthavner :

Sørkjosen lufthavn

Sørkjosen, Norge

breddegrad: 69-47N, lengdegrad: 020-58E, høyde over havet: 0 m

Gjeldene værobservasjon

Denne rapporten ble laget for 23 timer og 36 minutter siden, klokken 17:50 UTC
Vind 28 kt fra Vest-sørvest, skiftende mellom Sør-sørvest og Vest
Temperatur 14°C
Luftfuktighet 55%
Trykk 1018 hPa
Sikt 10 km eller mer
Få skyer i en høyde av 3500 ft
Brutte skyer i en høyde av 6500 ft
lette regnbyger

METAR: ENSR 251750Z 29008KT 190V340 9999 -SHRA FEW035 BKN065 14/05 Q1018 WIND 1119FT 25028KT 210V280

Tid: 19:26 (17:26 UTC)


TAF: fraværende

Værobservasjoner og værvarsel for over 4000 flyplasser (METAR- og TAF-rapporter).

Tilgjengelige stasjoner er representert av de røde og gule prikkene på kartet.

Hold musepekeren over prikken for å se navnet på stasjonen.

Klikk så for å se værobservasjoner og -varsler.

For å forandre kartet kan du klikke på den grønne knappen med svart kryss for å zoome inn, på den grønne knappen med strek for å zoome ut, eller på de grønne pilene for å se tilstøtende kart.


METAR-TAF: